Time;durP1;ratioP1;P1;durP2;ratioP2;P2;SDS_P1;SDS_P2;PMS_P1;PMS_P2;Temp;Humidity;BMP_temperature;BMP_pressure;BME280_temperature;BME280_humidity;BME280_pressure;Samples;Min_cycle;Max_cycle;Signal;HPM_P1;HPM_P2
2022/10/29 00:01:27;;;;;;;33.63;14.52;;;;;;;;;;5054979;28;20028;-66
2022/10/29 00:03:53;;;;;;;24.48;14.23;;;;;;;;;;5054101;28;20481;-66
2022/10/29 00:06:19;;;;;;;25.35;13.95;;;;;;;;;;5054997;28;20029;-66
2022/10/29 00:08:45;;;;;;;29.67;16.77;;;;;;;;;;5050486;28;20028;-65
2022/10/29 00:11:13;;;;;;;33.00;21.17;;;;;;;;;;5056819;28;20021;-66
2022/10/29 00:13:39;;;;;;;34.00;21.45;;;;;;;;;;5074163;28;20024;-66
2022/10/29 00:16:11;;;;;;;27.40;16.05;;;;;;;;;;5058938;28;20040;-66
2022/10/29 00:18:37;;;;;;;24.45;15.07;;;;;;;;;;5036699;28;20021;-66
2022/10/29 00:21:04;;;;;;;34.28;15.02;;;;;;;;;;5054533;28;20032;-65
2022/10/29 00:23:30;;;;;;;26.23;14.43;;;;;;;;;;5054890;28;20025;-67
2022/10/29 00:25:57;;;;;;;26.58;14.70;;;;;;;;;;5054381;28;20400;-66
2022/10/29 00:28:23;;;;;;;30.50;15.82;;;;;;;;;;5056114;28;20032;-65
2022/10/29 00:30:49;;;;;;;30.08;15.20;;;;;;;;;;5074370;28;20065;-65
2022/10/29 00:33:17;;;;;;;30.17;18.45;;;;;;;;;;5055461;28;20077;-65
2022/10/29 00:35:43;;;;;;;28.85;18.67;;;;;;;;;;5056202;28;20028;-66
2022/10/29 00:38:09;;;;;;;33.58;19.75;;;;;;;;;;5074449;28;20158;-65
2022/10/29 00:40:36;;;;;;;36.67;22.40;;;;;;;;;;5056032;28;20032;-65
2022/10/29 00:43:12;;;;;;;32.22;21.73;;;;;;;;;;5073075;28;20017;-63
2022/10/29 00:45:40;;;;;;;34.88;20.67;;;;;;;;;;5073503;28;20048;-65
2022/10/29 00:48:06;;;;;;;27.92;15.50;;;;;;;;;;5056133;28;20028;-65
2022/10/29 00:50:32;;;;;;;29.38;14.55;;;;;;;;;;5064567;28;20550;-65
2022/10/29 00:52:59;;;;;;;27.20;14.90;;;;;;;;;;5053542;28;20083;-65
2022/10/29 00:55:25;;;;;;;26.40;14.48;;;;;;;;;;5051507;28;20105;-67
2022/10/29 00:57:52;;;;;;;25.67;14.10;;;;;;;;;;5073712;28;20024;-66
2022/10/29 01:00:19;;;;;;;31.60;15.02;;;;;;;;;;5073752;28;20020;-66
2022/10/29 01:02:45;;;;;;;30.63;17.70;;;;;;;;;;5073553;28;20021;-65
2022/10/29 01:05:13;;;;;;;33.22;17.17;;;;;;;;;;5072905;28;20024;-66
2022/10/29 01:07:39;;;;;;;27.30;15.80;;;;;;;;;;5073795;28;20441;-65
2022/10/29 01:10:05;;;;;;;31.98;16.17;;;;;;;;;;5073627;28;20024;-66
2022/10/29 01:12:54;;;;;;;32.53;16.40;;;;;;;;;;5055555;28;20051;-65
2022/10/29 01:15:25;;;;;;;36.67;16.58;;;;;;;;;;5062168;28;20544;-67
2022/10/29 01:17:54;;;;;;;27.75;17.10;;;;;;;;;;5073775;28;20396;-66
2022/10/29 01:20:23;;;;;;;31.02;14.82;;;;;;;;;;5048821;28;20053;-66
2022/10/29 01:22:58;;;;;;;26.10;15.15;;;;;;;;;;5070679;28;20361;-66
2022/10/29 01:25:39;;;;;;;30.55;16.95;;;;;;;;;;5073125;28;20032;-66
2022/10/29 01:28:20;;;;;;;32.17;16.23;;;;;;;;;;5072264;28;20073;-65
2022/10/29 01:30:52;;;;;;;29.30;18.20;;;;;;;;;;5071647;28;20115;-66
2022/10/29 01:33:24;;;;;;;35.10;15.65;;;;;;;;;;5072226;28;20024;-66
2022/10/29 01:36:02;;;;;;;28.83;17.10;;;;;;;;;;5074735;28;20063;-65
2022/10/29 01:38:40;;;;;;;30.20;16.48;;;;;;;;;;5074364;28;20025;-66
2022/10/29 01:41:12;;;;;;;32.53;17.33;;;;;;;;;;5074090;28;20029;-66
2022/10/29 01:43:47;;;;;;;29.98;17.20;;;;;;;;;;5072405;28;20365;-65
2022/10/29 01:46:13;;;;;;;28.77;16.35;;;;;;;;;;5073868;28;20024;-65
2022/10/29 01:48:42;;;;;;;33.33;19.10;;;;;;;;;;5071816;28;20480;-65
2022/10/29 01:51:11;;;;;;;28.25;17.23;;;;;;;;;;5071286;28;20400;-66
2022/10/29 01:53:38;;;;;;;29.40;16.77;;;;;;;;;;5071656;28;20078;-65
2022/10/29 01:56:04;;;;;;;32.38;17.40;;;;;;;;;;5071445;28;20078;-65
2022/10/29 01:58:30;;;;;;;33.97;22.55;;;;;;;;;;5072930;28;20369;-66
2022/10/29 02:01:15;;;;;;;35.53;21.38;;;;;;;;;;5071289;28;20112;-66
2022/10/29 02:03:41;;;;;;;33.72;18.90;;;;;;;;;;5069897;28;20021;-66
2022/10/29 02:06:13;;;;;;;28.90;16.95;;;;;;;;;;5072623;28;20534;-66
2022/10/29 02:08:47;;;;;;;29.30;19.40;;;;;;;;;;5071496;28;20501;-66
2022/10/29 02:11:13;;;;;;;31.63;16.77;;;;;;;;;;5071048;28;20031;-65
2022/10/29 02:13:46;;;;;;;29.63;17.40;;;;;;;;;;5072131;28;20033;-65
2022/10/29 02:16:13;;;;;;;28.67;17.40;;;;;;;;;;5054165;28;20110;-66
2022/10/29 02:18:42;;;;;;;33.92;19.05;;;;;;;;;;5054522;28;20369;-65
2022/10/29 02:21:08;;;;;;;29.30;16.42;;;;;;;;;;5070080;28;20024;-65
2022/10/29 02:23:34;;;;;;;37.53;25.88;;;;;;;;;;5053541;28;20111;-65
2022/10/29 02:26:00;;;;;;;32.80;19.15;;;;;;;;;;5054312;28;20044;-65
2022/10/29 02:28:26;;;;;;;34.30;20.33;;;;;;;;;;5072415;28;20523;-66
2022/10/29 02:30:52;;;;;;;31.10;19.10;;;;;;;;;;5072304;28;20036;-67
2022/10/29 02:33:20;;;;;;;33.50;22.60;;;;;;;;;;5053848;28;20036;-66
2022/10/29 02:35:46;;;;;;;32.25;18.80;;;;;;;;;;5072709;28;20380;-65
2022/10/29 02:38:12;;;;;;;28.80;18.63;;;;;;;;;;5072407;28;20054;-65
2022/10/29 02:40:38;;;;;;;28.80;18.13;;;;;;;;;;5072528;28;20078;-65
2022/10/29 02:43:03;;;;;;;34.03;20.00;;;;;;;;;;5054262;28;20120;-64
2022/10/29 02:45:29;;;;;;;38.92;23.13;;;;;;;;;;5072614;28;20472;-65
2022/10/29 02:47:55;;;;;;;30.88;18.40;;;;;;;;;;5054498;28;20078;-65
2022/10/29 02:50:21;;;;;;;30.13;17.77;;;;;;;;;;5047095;28;20036;-64
2022/10/29 02:52:47;;;;;;;30.20;18.60;;;;;;;;;;5034239;28;20051;-65
2022/10/29 02:55:13;;;;;;;31.08;18.60;;;;;;;;;;5033981;28;20029;-64
2022/10/29 02:57:43;;;;;;;33.25;17.67;;;;;;;;;;5052262;28;20028;-67
2022/10/29 03:00:09;;;;;;;29.45;18.25;;;;;;;;;;5052007;28;20071;-67
2022/10/29 03:02:35;;;;;;;31.00;17.58;;;;;;;;;;5052236;28;20637;-66
2022/10/29 03:05:01;;;;;;;31.60;19.08;;;;;;;;;;5033109;28;20033;-67
2022/10/29 03:07:27;;;;;;;36.72;19.33;;;;;;;;;;5051957;28;20017;-67
2022/10/29 03:09:53;;;;;;;33.05;18.45;;;;;;;;;;5051650;28;20377;-66
2022/10/29 03:12:19;;;;;;;32.67;21.88;;;;;;;;;;5052142;28;20040;-67
2022/10/29 03:14:45;;;;;;;36.50;20.25;;;;;;;;;;5052576;28;20059;-67
2022/10/29 03:17:11;;;;;;;34.42;22.77;;;;;;;;;;5055611;28;20032;-66
2022/10/29 03:19:37;;;;;;;30.00;16.73;;;;;;;;;;5056094;28;20025;-67
2022/10/29 03:22:03;;;;;;;28.80;17.88;;;;;;;;;;5037763;28;20029;-65
2022/10/29 03:24:29;;;;;;;32.10;18.52;;;;;;;;;;5055146;28;20039;-64
2022/10/29 03:26:55;;;;;;;32.72;19.52;;;;;;;;;;5055567;28;20543;-65
2022/10/29 03:29:21;;;;;;;35.17;19.75;;;;;;;;;;5055693;28;20021;-68
2022/10/29 03:31:47;;;;;;;32.15;18.90;;;;;;;;;;5037846;28;20021;-65
2022/10/29 03:34:13;;;;;;;32.72;18.92;;;;;;;;;;5055160;28;20025;-64
2022/10/29 03:36:39;;;;;;;32.60;19.83;;;;;;;;;;5038157;28;20401;-65
2022/10/29 03:39:05;;;;;;;34.95;21.23;;;;;;;;;;5056116;28;20029;-66
2022/10/29 03:41:31;;;;;;;34.08;20.05;;;;;;;;;;5055748;28;20021;-66
2022/10/29 03:43:57;;;;;;;40.83;21.02;;;;;;;;;;5036996;28;20171;-66
2022/10/29 03:46:23;;;;;;;29.98;19.88;;;;;;;;;;5055324;28;20080;-65
2022/10/29 03:48:49;;;;;;;37.55;20.67;;;;;;;;;;5037056;28;20079;-65
2022/10/29 03:51:15;;;;;;;30.67;18.45;;;;;;;;;;5065059;28;20381;-66
2022/10/29 03:53:41;;;;;;;32.22;20.48;;;;;;;;;;5074312;28;20078;-66
2022/10/29 03:56:08;;;;;;;32.67;19.73;;;;;;;;;;5075318;28;20623;-66
2022/10/29 03:58:34;;;;;;;33.03;19.75;;;;;;;;;;5075066;28;20031;-66
2022/10/29 04:01:07;;;;;;;33.60;20.55;;;;;;;;;;5074650;28;20432;-66
2022/10/29 04:03:34;;;;;;;35.38;24.67;;;;;;;;;;5056599;28;20016;-65
2022/10/29 04:06:01;;;;;;;32.38;20.73;;;;;;;;;;5056659;28;20025;-65
2022/10/29 04:08:27;;;;;;;41.45;22.10;;;;;;;;;;5075003;28;20024;-65
2022/10/29 04:10:53;;;;;;;31.42;18.85;;;;;;;;;;5074972;28;20456;-65
2022/10/29 04:13:19;;;;;;;34.03;22.80;;;;;;;;;;5055897;28;20032;-65
2022/10/29 04:15:46;;;;;;;30.95;18.50;;;;;;;;;;5074699;28;20040;-65
2022/10/29 04:18:12;;;;;;;33.05;19.00;;;;;;;;;;5056722;28;20021;-64
2022/10/29 04:20:39;;;;;;;33.85;18.83;;;;;;;;;;5072884;28;20020;-67
2022/10/29 04:23:05;;;;;;;30.05;19.40;;;;;;;;;;5073833;28;20388;-65
2022/10/29 04:25:31;;;;;;;34.40;21.88;;;;;;;;;;5056816;28;20032;-65
2022/10/29 04:27:57;;;;;;;33.97;20.42;;;;;;;;;;5072107;28;20033;-65
2022/10/29 04:30:24;;;;;;;28.67;18.48;;;;;;;;;;5056705;28;20116;-65
2022/10/29 04:32:50;;;;;;;36.03;20.25;;;;;;;;;;5074530;28;20107;-65
2022/10/29 04:35:16;;;;;;;33.13;19.95;;;;;;;;;;5055329;28;20047;-65
2022/10/29 04:37:42;;;;;;;33.90;20.77;;;;;;;;;;5074310;28;20021;-64
2022/10/29 04:40:08;;;;;;;34.63;21.73;;;;;;;;;;5074162;28;20129;-66
2022/10/29 04:42:38;;;;;;;34.20;21.90;;;;;;;;;;5056152;28;20464;-65
2022/10/29 04:45:04;;;;;;;33.15;21.73;;;;;;;;;;5073853;28;20035;-66
2022/10/29 04:47:30;;;;;;;35.63;22.13;;;;;;;;;;5074120;28;20055;-65
2022/10/29 04:49:56;;;;;;;41.88;21.73;;;;;;;;;;5100632;22;20029;-65
2022/10/29 04:52:22;;;;;;;40.28;22.42;;;;;;;;;;5089315;28;20032;-64
2022/10/29 04:54:48;;;;;;;32.50;22.27;;;;;;;;;;5091178;28;20106;-65
2022/10/29 04:57:14;;;;;;;34.47;22.48;;;;;;;;;;5073806;28;20062;-67
2022/10/29 04:59:40;;;;;;;40.35;21.88;;;;;;;;;;5074265;28;20117;-65
2022/10/29 05:02:06;;;;;;;35.47;21.80;;;;;;;;;;5091856;28;20020;-66
2022/10/29 05:04:32;;;;;;;32.60;22.95;;;;;;;;;;5091286;28;20016;-65
2022/10/29 05:06:58;;;;;;;34.15;22.00;;;;;;;;;;5073820;28;20502;-65
2022/10/29 05:09:24;;;;;;;30.83;21.23;;;;;;;;;;5073749;28;20046;-64
2022/10/29 05:11:50;;;;;;;37.35;21.75;;;;;;;;;;5073315;28;20020;-65
2022/10/29 05:14:16;;;;;;;39.38;21.85;;;;;;;;;;5093897;28;20610;-66
2022/10/29 05:16:42;;;;;;;32.03;21.33;;;;;;;;;;5110175;28;20043;-66
2022/10/29 05:19:08;;;;;;;32.75;21.88;;;;;;;;;;5091320;28;20071;-67
2022/10/29 05:21:34;;;;;;;34.35;22.33;;;;;;;;;;5085266;28;20028;-67
2022/10/29 05:24:00;;;;;;;36.10;23.15;;;;;;;;;;5070260;28;20548;-66
2022/10/29 05:26:26;;;;;;;35.95;23.05;;;;;;;;;;5053133;28;20067;-64
2022/10/29 05:28:52;;;;;;;34.10;23.02;;;;;;;;;;5053323;28;20059;-66
2022/10/29 05:31:18;;;;;;;37.80;23.30;;;;;;;;;;5086291;28;20047;-66
2022/10/29 05:33:44;;;;;;;38.97;24.58;;;;;;;;;;5072242;28;20031;-67
2022/10/29 05:36:10;;;;;;;37.47;22.13;;;;;;;;;;5091169;28;20150;-66
2022/10/29 05:38:36;;;;;;;34.70;23.25;;;;;;;;;;5072058;28;20495;-66
2022/10/29 05:41:02;;;;;;;36.95;22.17;;;;;;;;;;5072814;28;20024;-65
2022/10/29 05:43:28;;;;;;;34.50;22.00;;;;;;;;;;5089905;28;20089;-66
2022/10/29 05:45:54;;;;;;;38.80;23.85;;;;;;;;;;5090681;28;20030;-66
2022/10/29 05:48:20;;;;;;;35.85;23.25;;;;;;;;;;5075837;28;20086;-66
2022/10/29 05:50:46;;;;;;;34.65;22.15;;;;;;;;;;5078439;28;20380;-66
2022/10/29 05:53:13;;;;;;;38.20;22.25;;;;;;;;;;5090203;28;20043;-66
2022/10/29 05:55:39;;;;;;;44.53;25.27;;;;;;;;;;5090604;28;20035;-65
2022/10/29 05:58:07;;;;;;;36.10;23.25;;;;;;;;;;5090689;28;20145;-63
2022/10/29 06:00:34;;;;;;;37.42;23.45;;;;;;;;;;5090830;28;20106;-66
2022/10/29 06:03:00;;;;;;;39.67;24.65;;;;;;;;;;5090456;28;20035;-65
2022/10/29 06:05:26;;;;;;;32.33;22.70;;;;;;;;;;5089304;28;20020;-66
2022/10/29 06:07:53;;;;;;;37.33;21.70;;;;;;;;;;5090586;28;20051;-67
2022/10/29 06:10:19;;;;;;;39.05;23.63;;;;;;;;;;5090538;28;20060;-64
2022/10/29 06:12:45;;;;;;;37.35;23.25;;;;;;;;;;5089103;28;20155;-66
2022/10/29 06:15:11;;;;;;;35.97;23.17;;;;;;;;;;5088312;28;20028;-66
2022/10/29 06:17:41;;;;;;;41.22;23.73;;;;;;;;;;5072259;28;20016;-65
2022/10/29 06:20:08;;;;;;;36.88;24.05;;;;;;;;;;5085029;28;20021;-66
2022/10/29 06:22:34;;;;;;;36.70;22.90;;;;;;;;;;5070010;28;20435;-64
2022/10/29 06:25:00;;;;;;;40.03;23.38;;;;;;;;;;5068536;28;20477;-65
2022/10/29 06:27:26;;;;;;;38.28;24.02;;;;;;;;;;5070452;28;20104;-66
2022/10/29 06:29:52;;;;;;;39.10;24.13;;;;;;;;;;5070100;28;20052;-62
2022/10/29 06:32:18;;;;;;;37.65;22.77;;;;;;;;;;5070216;28;20096;-67
2022/10/29 06:34:44;;;;;;;35.80;21.65;;;;;;;;;;5069294;28;20060;-64
2022/10/29 06:37:10;;;;;;;37.83;21.98;;;;;;;;;;5070156;28;20070;-65
2022/10/29 06:39:36;;;;;;;37.00;22.45;;;;;;;;;;5070012;28;20031;-65
2022/10/29 06:42:02;;;;;;;42.80;23.35;;;;;;;;;;5069934;28;20419;-65
2022/10/29 06:44:28;;;;;;;38.90;23.60;;;;;;;;;;5069300;28;20017;-65
2022/10/29 06:46:54;;;;;;;40.63;22.70;;;;;;;;;;5069609;28;20503;-65
2022/10/29 06:49:20;;;;;;;37.88;21.52;;;;;;;;;;5083131;28;20036;-65
2022/10/29 06:51:46;;;;;;;32.17;21.70;;;;;;;;;;5093227;28;20028;-64
2022/10/29 06:54:12;;;;;;;39.78;23.70;;;;;;;;;;5093391;28;20028;-65
2022/10/29 06:56:38;;;;;;;41.92;23.27;;;;;;;;;;5094247;28;20060;-65
2022/10/29 06:59:04;;;;;;;39.35;22.30;;;;;;;;;;5094242;28;20049;-64
2022/10/29 07:01:32;;;;;;;37.30;21.60;;;;;;;;;;5094162;28;20472;-66
2022/10/29 07:03:58;;;;;;;34.17;23.02;;;;;;;;;;5092250;28;20111;-64
2022/10/29 07:06:24;;;;;;;41.95;27.10;;;;;;;;;;5094019;28;20056;-65
2022/10/29 07:08:50;;;;;;;34.33;22.52;;;;;;;;;;5092690;28;20035;-65
2022/10/29 07:11:16;;;;;;;32.53;22.95;;;;;;;;;;5093901;28;20384;-65
2022/10/29 07:13:43;;;;;;;34.60;22.25;;;;;;;;;;5093155;28;20045;-65
2022/10/29 07:16:10;;;;;;;41.50;23.17;;;;;;;;;;5093497;28;20168;-65
2022/10/29 07:18:36;;;;;;;44.45;23.23;;;;;;;;;;5093843;28;20532;-64
2022/10/29 07:21:03;;;;;;;34.60;22.67;;;;;;;;;;5091892;28;20074;-65
2022/10/29 07:23:29;;;;;;;34.65;22.05;;;;;;;;;;5092315;28;20046;-63
2022/10/29 07:25:55;;;;;;;37.35;22.10;;;;;;;;;;5093655;28;20024;-65
2022/10/29 07:28:24;;;;;;;32.88;21.73;;;;;;;;;;5092226;28;20105;-64
2022/10/29 07:30:50;;;;;;;32.42;21.63;;;;;;;;;;5091937;28;20028;-64
2022/10/29 07:33:17;;;;;;;35.15;20.10;;;;;;;;;;5092770;28;20039;-65
2022/10/29 07:35:43;;;;;;;29.77;20.48;;;;;;;;;;5093203;28;20472;-65
2022/10/29 07:38:11;;;;;;;33.85;21.70;;;;;;;;;;5093407;28;20024;-64
2022/10/29 07:40:45;;;;;;;35.40;21.33;;;;;;;;;;5093223;28;20111;-64
2022/10/29 07:43:11;;;;;;;32.22;20.77;;;;;;;;;;5092527;28;20039;-65
2022/10/29 07:45:37;;;;;;;34.60;20.63;;;;;;;;;;5091680;28;20068;-65
2022/10/29 07:48:06;;;;;;;35.08;20.92;;;;;;;;;;5092892;28;20538;-65
2022/10/29 07:50:32;;;;;;;31.48;20.63;;;;;;;;;;5091147;28;20024;-63
2022/10/29 07:53:01;;;;;;;34.45;21.67;;;;;;;;;;5086964;28;20078;-64
2022/10/29 07:55:27;;;;;;;33.30;20.80;;;;;;;;;;5074390;28;20036;-61
2022/10/29 07:58:01;;;;;;;37.70;20.83;;;;;;;;;;5072591;28;20453;-59
2022/10/29 08:00:32;;;;;;;33.60;20.08;;;;;;;;;;5072247;28;20044;-60
2022/10/29 08:02:58;;;;;;;33.28;19.98;;;;;;;;;;5075662;28;20025;-60
2022/10/29 08:05:24;;;;;;;34.67;19.85;;;;;;;;;;5071589;28;20086;-61
2022/10/29 08:07:53;;;;;;;29.65;19.45;;;;;;;;;;5072327;28;20039;-61
2022/10/29 08:10:19;;;;;;;33.65;19.45;;;;;;;;;;5072231;28;20426;-61
2022/10/29 08:12:49;;;;;;;32.17;20.65;;;;;;;;;;5072296;28;20064;-61
2022/10/29 08:15:15;;;;;;;33.67;18.10;;;;;;;;;;5074411;28;20503;-61
2022/10/29 08:17:41;;;;;;;33.70;18.67;;;;;;;;;;5082949;28;20080;-60
2022/10/29 08:20:07;;;;;;;29.80;17.20;;;;;;;;;;5112896;28;20073;-60
2022/10/29 08:22:33;;;;;;;32.65;19.13;;;;;;;;;;5081770;28;20028;-61
2022/10/29 08:24:59;;;;;;;32.58;18.83;;;;;;;;;;5071458;28;20115;-62
2022/10/29 08:27:25;;;;;;;31.13;18.92;;;;;;;;;;5072189;28;20440;-61
2022/10/29 08:29:51;;;;;;;29.83;18.33;;;;;;;;;;5072261;28;20107;-62
2022/10/29 08:32:17;;;;;;;36.67;19.58;;;;;;;;;;5073128;28;20112;-61
2022/10/29 08:34:43;;;;;;;31.95;18.55;;;;;;;;;;5071276;28;20111;-62
2022/10/29 08:37:09;;;;;;;31.33;19.20;;;;;;;;;;5072984;28;20512;-61
2022/10/29 08:39:35;;;;;;;29.73;18.27;;;;;;;;;;5072009;28;20033;-61
2022/10/29 08:42:25;;;;;;;34.38;22.10;;;;;;;;;;5071626;28;20480;-61
2022/10/29 08:45:09;;;;;;;35.97;18.90;;;;;;;;;;5034377;28;20170;-61
2022/10/29 08:47:58;;;;;;;33.47;18.85;;;;;;;;;;5073039;28;20100;-61
2022/10/29 08:50:29;;;;;;;31.02;17.10;;;;;;;;;;5062191;28;20127;-61
2022/10/29 08:52:56;;;;;;;30.15;18.08;;;;;;;;;;5072547;28;20035;-60
2022/10/29 08:55:28;;;;;;;30.73;17.85;;;;;;;;;;5071282;28;20103;-61
2022/10/29 08:57:56;;;;;;;28.35;18.20;;;;;;;;;;5071439;28;20020;-60
2022/10/29 09:00:23;;;;;;;29.52;17.02;;;;;;;;;;5076635;28;20028;-61
2022/10/29 09:02:55;;;;;;;25.30;16.08;;;;;;;;;;5090003;28;20024;-62
2022/10/29 09:05:24;;;;;;;27.83;16.95;;;;;;;;;;5090887;28;20086;-61
2022/10/29 09:07:57;;;;;;;29.80;17.48;;;;;;;;;;5079464;28;20025;-62
2022/10/29 09:10:23;;;;;;;27.98;16.17;;;;;;;;;;5071241;28;20116;-62
2022/10/29 09:12:49;;;;;;;30.63;15.93;;;;;;;;;;5091392;28;20062;-62
2022/10/29 09:15:34;;;;;;;31.05;16.20;;;;;;;;;;5105241;28;20111;-62
2022/10/29 09:18:15;;;;;;;27.73;15.02;;;;;;;;;;5084611;28;20399;-59
2022/10/29 09:20:45;;;;;;;27.45;15.10;;;;;;;;;;5091088;28;20101;-60
2022/10/29 09:23:21;;;;;;;27.90;14.38;;;;;;;;;;5090571;28;20183;-62
2022/10/29 09:25:53;;;;;;;29.48;15.63;;;;;;;;;;5091214;28;20020;-61
2022/10/29 09:28:32;;;;;;;29.15;16.40;;;;;;;;;;5091611;28;20035;-61
2022/10/29 09:31:05;;;;;;;26.27;16.08;;;;;;;;;;5068368;28;20035;-61
2022/10/29 09:33:32;;;;;;;40.08;21.67;;;;;;;;;;5084690;28;20087;-59
2022/10/29 09:35:59;;;;;;;26.73;14.90;;;;;;;;;;5081249;28;20020;-61
2022/10/29 09:38:29;;;;;;;29.23;15.93;;;;;;;;;;5073843;28;20029;-60
2022/10/29 09:40:57;;;;;;;25.55;16.00;;;;;;;;;;5072341;28;20399;-63
2022/10/29 09:43:47;;;;;;;27.03;15.53;;;;;;;;;;5052796;28;20107;-61
2022/10/29 09:46:23;;;;;;;31.08;15.48;;;;;;;;;;5053219;28;20028;-61
2022/10/29 09:49:07;;;;;;;30.85;16.27;;;;;;;;;;5070684;28;20434;-62
2022/10/29 09:51:41;;;;;;;29.30;15.07;;;;;;;;;;5070391;28;20138;-61
2022/10/29 09:54:07;;;;;;;26.45;14.88;;;;;;;;;;5069843;28;20028;-61
2022/10/29 09:56:33;;;;;;;28.50;15.43;;;;;;;;;;5070382;28;20434;-61
2022/10/29 09:59:09;;;;;;;26.92;16.33;;;;;;;;;;5052161;28;20566;-60
2022/10/29 10:01:35;;;;;;;29.20;15.65;;;;;;;;;;5090021;28;20016;-61
2022/10/29 10:04:05;;;;;;;26.98;14.65;;;;;;;;;;5086601;28;20432;-61
2022/10/29 10:06:51;;;;;;;25.45;14.63;;;;;;;;;;5102531;28;20084;-61
2022/10/29 10:09:17;;;;;;;25.08;15.25;;;;;;;;;;5110912;28;20463;-61
2022/10/29 10:11:49;;;;;;;28.67;15.40;;;;;;;;;;5110873;28;20096;-64
2022/10/29 10:14:22;;;;;;;30.38;19.00;;;;;;;;;;5109845;28;20015;-61
2022/10/29 10:16:57;;;;;;;28.35;15.57;;;;;;;;;;5061380;28;20029;-61
2022/10/29 10:19:25;;;;;;;26.98;15.73;;;;;;;;;;5070393;28;20488;-61
2022/10/29 10:21:56;;;;;;;24.88;14.68;;;;;;;;;;5070174;28;20020;-61
2022/10/29 10:24:35;;;;;;;27.02;15.32;;;;;;;;;;5068858;28;20028;-61
2022/10/29 10:27:21;;;;;;;27.77;15.15;;;;;;;;;;5052243;28;20101;-61
2022/10/29 10:30:05;;;;;;;29.48;15.02;;;;;;;;;;5070160;28;20100;-61
2022/10/29 10:32:32;;;;;;;28.90;14.85;;;;;;;;;;5069920;28;20037;-61
2022/10/29 10:34:58;;;;;;;29.60;15.07;;;;;;;;;;5068952;28;20046;-61
2022/10/29 10:37:24;;;;;;;25.73;13.90;;;;;;;;;;5069885;28;20029;-61
2022/10/29 10:39:57;;;;;;;26.48;14.25;;;;;;;;;;5068853;28;20027;-62
2022/10/29 10:42:27;;;;;;;28.55;14.35;;;;;;;;;;5066870;28;20027;-62
2022/10/29 10:44:59;;;;;;;24.35;14.70;;;;;;;;;;5068350;28;20481;-61
2022/10/29 10:47:27;;;;;;;24.00;13.05;;;;;;;;;;5068859;28;20035;-60
2022/10/29 10:49:53;;;;;;;26.17;13.35;;;;;;;;;;5069914;28;20020;-61
2022/10/29 10:52:24;;;;;;;26.48;13.80;;;;;;;;;;5077072;22;20401;-63
2022/10/29 10:54:54;;;;;;;24.63;13.60;;;;;;;;;;5050476;28;20067;-63
2022/10/29 10:57:28;;;;;;;25.90;14.15;;;;;;;;;;5051028;28;20036;-64
2022/10/29 10:59:54;;;;;;;23.33;13.38;;;;;;;;;;5033737;28;20440;-63
2022/10/29 11:02:43;;;;;;;28.98;13.13;;;;;;;;;;5051029;28;20136;-64
2022/10/29 11:05:15;;;;;;;22.35;13.60;;;;;;;;;;5013452;28;20033;-63
2022/10/29 11:07:45;;;;;;;22.92;13.80;;;;;;;;;;5071195;28;20095;-63
2022/10/29 11:10:13;;;;;;;26.75;14.73;;;;;;;;;;5071151;28;20074;-64
2022/10/29 11:12:46;;;;;;;22.65;13.68;;;;;;;;;;5053208;28;20052;-64
2022/10/29 11:15:21;;;;;;;22.70;13.85;;;;;;;;;;5067857;28;20028;-64
2022/10/29 11:17:52;;;;;;;27.83;14.35;;;;;;;;;;5051120;28;20069;-64
2022/10/29 11:20:18;;;;;;;26.88;15.05;;;;;;;;;;5050767;28;20017;-63
2022/10/29 11:22:50;;;;;;;28.40;13.90;;;;;;;;;;5050521;28;20401;-63
2022/10/29 11:25:28;;;;;;;27.75;14.60;;;;;;;;;;5050111;28;20396;-64
2022/10/29 11:28:09;;;;;;;25.17;14.15;;;;;;;;;;5050993;28;20035;-64
2022/10/29 11:30:40;;;;;;;23.58;14.52;;;;;;;;;;5051339;28;20025;-62
2022/10/29 11:33:29;;;;;;;23.27;14.27;;;;;;;;;;5032361;28;20126;-64
2022/10/29 11:36:13;;;;;;;25.80;13.65;;;;;;;;;;5051791;28;20028;-63
2022/10/29 11:38:55;;;;;;;23.52;13.68;;;;;;;;;;5054752;28;20017;-64
2022/10/29 11:41:23;;;;;;;24.20;14.15;;;;;;;;;;5054685;28;20064;-63
2022/10/29 11:43:49;;;;;;;24.75;13.48;;;;;;;;;;5054106;28;20025;-63
2022/10/29 11:46:22;;;;;;;22.52;13.98;;;;;;;;;;5054737;28;20024;-62
2022/10/29 11:48:52;;;;;;;24.80;14.38;;;;;;;;;;5054346;28;20036;-65
2022/10/29 11:51:28;;;;;;;23.33;14.85;;;;;;;;;;5054253;28;20056;-64
2022/10/29 11:54:23;;;;;;;26.98;13.82;;;;;;;;;;5053553;28;20041;-64
2022/10/29 11:56:53;;;;;;;24.38;14.15;;;;;;;;;;5037211;28;20036;-63
2022/10/29 11:59:34;;;;;;;25.48;14.50;;;;;;;;;;5054051;28;20032;-66
2022/10/29 12:02:15;;;;;;;22.80;13.27;;;;;;;;;;5054040;28;20033;-64
2022/10/29 12:04:41;;;;;;;23.58;13.55;;;;;;;;;;5053374;28;20032;-64
2022/10/29 12:07:10;;;;;;;27.50;13.55;;;;;;;;;;5052532;28;20025;-64
2022/10/29 12:09:36;;;;;;;21.13;14.07;;;;;;;;;;5053852;28;20032;-65
2022/10/29 12:12:08;;;;;;;22.50;13.05;;;;;;;;;;5051952;28;20025;-63
2022/10/29 12:14:40;;;;;;;24.83;13.27;;;;;;;;;;5053128;28;20419;-62
2022/10/29 12:17:07;;;;;;;21.67;12.60;;;;;;;;;;5053588;28;20029;-66
2022/10/29 12:19:37;;;;;;;22.25;13.05;;;;;;;;;;5054253;28;20025;-66
2022/10/29 12:22:06;;;;;;;24.88;13.90;;;;;;;;;;5044911;28;20025;-66
2022/10/29 12:24:32;;;;;;;23.10;13.00;;;;;;;;;;5039263;28;20028;-67
2022/10/29 12:26:58;;;;;;;21.63;13.15;;;;;;;;;;5049448;28;20033;-67
2022/10/29 12:29:43;;;;;;;25.98;13.60;;;;;;;;;;5033846;28;20393;-65
2022/10/29 12:32:22;;;;;;;24.10;13.75;;;;;;;;;;5033709;28;20021;-65
2022/10/29 12:34:48;;;;;;;20.80;13.57;;;;;;;;;;4345645;28;10000716;-65
2022/10/29 12:37:17;;;;;;;22.58;13.35;;;;;;;;;;5047538;28;20087;-65
2022/10/29 12:39:46;;;;;;;24.02;13.20;;;;;;;;;;5049795;28;20519;-65
2022/10/29 12:42:16;;;;;;;22.88;13.15;;;;;;;;;;5021018;28;20036;-66
2022/10/29 12:45:03;;;;;;;27.75;13.85;;;;;;;;;;5029724;28;20378;-67
2022/10/29 12:47:43;;;;;;;20.63;12.95;;;;;;;;;;5043822;28;20082;-66
2022/10/29 12:50:18;;;;;;;20.40;12.80;;;;;;;;;;5043694;28;20462;-66
2022/10/29 12:52:47;;;;;;;22.08;12.88;;;;;;;;;;5048699;28;20083;-66
2022/10/29 12:55:14;;;;;;;22.73;13.40;;;;;;;;;;5035867;28;20029;-66
2022/10/29 12:57:40;;;;;;;23.33;13.35;;;;;;;;;;5028906;28;20458;-66
2022/10/29 13:00:26;;;;;;;24.25;12.68;;;;;;;;;;5011935;28;20031;-65
2022/10/29 13:02:52;;;;;;;23.70;12.90;;;;;;;;;;5041320;28;20029;-65
2022/10/29 13:05:18;;;;;;;26.20;13.95;;;;;;;;;;5027608;28;20040;-66
2022/10/29 13:07:44;;;;;;;25.98;13.45;;;;;;;;;;5014861;28;20025;-65
2022/10/29 13:10:23;;;;;;;24.65;14.55;;;;;;;;;;5050904;28;20104;-65
2022/10/29 13:12:58;;;;;;;23.50;14.68;;;;;;;;;;5036814;28;20034;-65
2022/10/29 13:15:27;;;;;;;23.70;13.70;;;;;;;;;;5018255;28;20025;-65
2022/10/29 13:17:54;;;;;;;25.48;14.25;;;;;;;;;;4699943;28;9999884;-64
2022/10/29 13:20:24;;;;;;;22.40;13.85;;;;;;;;;;5049480;28;20115;-65
2022/10/29 13:22:50;;;;;;;31.58;15.90;;;;;;;;;;5048947;28;20664;-64
2022/10/29 13:25:35;;;;;;;26.38;16.38;;;;;;;;;;5048363;28;20110;-64
2022/10/29 13:28:21;;;;;;;25.40;14.27;;;;;;;;;;4682642;28;9999828;-63
2022/10/29 13:31:09;;;;;;;25.00;16.23;;;;;;;;;;5049700;28;20021;-65
2022/10/29 13:33:35;;;;;;;23.38;13.60;;;;;;;;;;5030804;28;20116;-62
2022/10/29 13:36:01;;;;;;;22.40;14.70;;;;;;;;;;5048890;28;20025;-63
2022/10/29 13:38:46;;;;;;;21.83;14.20;;;;;;;;;;5049386;28;20063;-62
2022/10/29 13:41:12;;;;;;;21.05;13.55;;;;;;;;;;5035379;28;20764;-62
2022/10/29 13:43:40;;;;;;;24.38;14.60;;;;;;;;;;5030954;28;20049;-62
2022/10/29 13:46:05;;;;;;;24.77;14.85;;;;;;;;;;5020180;28;20032;-63
2022/10/29 13:48:34;;;;;;;22.95;14.73;;;;;;;;;;5049414;28;20549;-62
2022/10/29 13:51:03;;;;;;;22.60;13.70;;;;;;;;;;5048936;28;20034;-61
2022/10/29 13:53:34;;;;;;;24.95;13.88;;;;;;;;;;5047931;28;20044;-63
2022/10/29 13:56:01;;;;;;;23.35;14.13;;;;;;;;;;5048895;28;20028;-62
2022/10/29 13:58:31;;;;;;;23.45;13.95;;;;;;;;;;5048773;28;20033;-62
2022/10/29 14:00:57;;;;;;;26.80;13.75;;;;;;;;;;5048454;28;20029;-61
2022/10/29 14:03:28;;;;;;;24.42;14.48;;;;;;;;;;5048450;28;20083;-61
2022/10/29 14:06:13;;;;;;;24.52;14.05;;;;;;;;;;5029980;28;20029;-62
2022/10/29 14:08:50;;;;;;;21.88;12.90;;;;;;;;;;5018765;28;20071;-61
2022/10/29 14:11:23;;;;;;;24.90;15.27;;;;;;;;;;5045915;28;20021;-60
2022/10/29 14:13:50;;;;;;;21.50;13.13;;;;;;;;;;5021692;28;20040;-62
2022/10/29 14:16:20;;;;;;;22.13;13.73;;;;;;;;;;5040937;28;20017;-60
2022/10/29 14:18:47;;;;;;;22.83;15.07;;;;;;;;;;5030408;28;20029;-62
2022/10/29 14:21:24;;;;;;;25.67;14.82;;;;;;;;;;5013970;28;20045;-62
2022/10/29 14:24:00;;;;;;;26.45;15.35;;;;;;;;;;5027813;28;20025;-62
2022/10/29 14:26:28;;;;;;;23.83;13.45;;;;;;;;;;5011187;28;20682;-61
2022/10/29 14:28:54;;;;;;;22.67;14.77;;;;;;;;;;5039789;28;20043;-62